Time,TemperatureF,DewpointF,PressureIn,WindDirection,WindDirectionDegrees,WindSpeedMPH,WindSpeedGustMPH,Humidity,HourlyPrecipIn,Conditions,Clouds,dailyrainin,SoftwareType,DateUTC
2013-05-12 00:33:00,60.0,60.0,29.69,North,-999,-999.0,-999.0,100,-99.99,,,-99.99,,2013-05-12 04:33:00,
2013-05-12 00:43:00,60.0,60.0,29.69,North,-999,-999.0,-999.0,100,-99.99,,,-99.99,,2013-05-12 04:43:00,
2013-05-12 00:52:00,60.0,60.0,29.69,North,-999,-999.0,-999.0,100,-99.99,,,-99.99,,2013-05-12 04:52:00,
2013-05-12 01:32:00,60.0,60.0,29.67,North,-999,-999.0,-999.0,100,-99.99,,,-99.99,,2013-05-12 05:32:00,
2013-05-12 01:42:00,60.0,60.0,29.67,North,-999,-999.0,-999.0,100,-99.99,,,-99.99,,2013-05-12 05:42:00,
2013-05-12 01:51:00,60.0,60.0,29.67,North,-999,-999.0,-999.0,100,-99.99,,,-99.99,,2013-05-12 05:51:00,
2013-05-12 02:21:00,59.0,59.0,29.65,North,-999,-999.0,-999.0,100,-99.99,,,-99.99,,2013-05-12 06:21:00,
2013-05-12 02:32:00,59.0,59.0,29.65,North,-999,-999.0,-999.0,100,-99.99,,,-99.99,,2013-05-12 06:32:00,
2013-05-12 02:42:00,59.0,59.0,29.65,North,-999,-999.0,-999.0,100,-99.99,,,-99.99,,2013-05-12 06:42:00,
2013-05-12 02:52:00,59.0,59.0,29.65,North,-999,-999.0,-999.0,100,-99.99,,,-99.99,,2013-05-12 06:52:00,
2013-05-12 03:32:00,59.0,58.0,29.64,North,-999,-999.0,-999.0,98,-99.99,,,-99.99,,2013-05-12 07:32:00,
2013-05-12 03:42:00,59.0,58.0,29.64,North,-999,-999.0,-999.0,98,-99.99,,,-99.99,,2013-05-12 07:42:00,
2013-05-12 03:52:00,59.0,58.0,29.64,North,-999,-999.0,-999.0,98,-99.99,,,-99.99,,2013-05-12 07:52:00,
2013-05-12 03:53:00,59.0,56.0,29.64,North,-999,-999.0,-999.0,90,-99.99,,,-99.99,,2013-05-12 07:53:00,
2013-05-12 04:21:00,59.0,56.0,29.64,North,-999,-999.0,-999.0,90,-99.99,,,-99.99,,2013-05-12 08:21:00,
2013-05-12 04:32:00,59.0,56.0,29.64,North,-999,-999.0,-999.0,90,-99.99,,,-99.99,,2013-05-12 08:32:00,
2013-05-12 04:42:00,59.0,56.0,29.64,North,-999,-999.0,-999.0,90,-99.99,,,-99.99,,2013-05-12 08:42:00,
2013-05-12 05:21:00,59.0,55.0,29.65,North,-999,-999.0,-999.0,88,-99.99,,,-99.99,,2013-05-12 09:21:00,
2013-05-12 05:33:00,59.0,55.0,29.65,North,-999,-999.0,-999.0,88,-99.99,,,-99.99,,2013-05-12 09:33:00,
2013-05-12 05:43:00,59.0,55.0,29.65,North,-999,-999.0,-999.0,88,-99.99,,,-99.99,,2013-05-12 09:43:00,
2013-05-12 05:52:00,59.0,55.0,29.65,North,-999,-999.0,-999.0,88,-99.99,,,-99.99,,2013-05-12 09:52:00,
2013-05-12 06:23:00,58.0,55.0,29.68,North,-999,-999.0,-999.0,90,-99.99,,,-99.99,,2013-05-12 10:23:00,
2013-05-12 06:33:00,58.0,55.0,29.68,North,-999,-999.0,-999.0,90,-99.99,,,-99.99,,2013-05-12 10:33:00,
2013-05-12 06:42:00,58.0,55.0,29.68,North,-999,-999.0,-999.0,90,-99.99,,,-99.99,,2013-05-12 10:42:00,
2013-05-12 06:52:00,58.0,55.0,29.68,North,-999,-999.0,-999.0,90,-99.99,,,-99.99,,2013-05-12 10:52:00,
2013-05-12 07:32:00,57.0,52.0,29.68,North,-999,-999.0,-999.0,84,-99.99,,,-99.99,,2013-05-12 11:32:00,
2013-05-12 07:42:00,57.0,52.0,29.68,North,-999,-999.0,-999.0,84,-99.99,,,-99.99,,2013-05-12 11:42:00,
2013-05-12 07:52:00,57.0,52.0,29.68,North,-999,-999.0,-999.0,84,-99.99,,,-99.99,,2013-05-12 11:52:00,
2013-05-12 08:32:00,58.0,46.0,29.68,NNW,335,-999.0,-999.0,64,-99.99,,,-99.99,,2013-05-12 12:32:00,
2013-05-12 08:42:00,58.0,46.0,29.68,NNW,335,-999.0,-999.0,64,-99.99,,,-99.99,,2013-05-12 12:42:00,
2013-05-12 08:51:00,58.0,46.0,29.68,NNW,335,-999.0,-999.0,64,-99.99,,,-99.99,,2013-05-12 12:51:00,
2013-05-12 09:21:00,60.0,45.0,29.69,North,-999,-999.0,-999.0,57,-99.99,,,-99.99,,2013-05-12 13:21:00,
2013-05-12 09:32:00,60.0,45.0,29.69,North,-999,-999.0,-999.0,57,-99.99,,,-99.99,,2013-05-12 13:32:00,
2013-05-12 09:42:00,60.0,45.0,29.69,North,-999,-999.0,-999.0,57,-99.99,,,-99.99,,2013-05-12 13:42:00,
2013-05-12 09:52:00,60.0,45.0,29.69,North,-999,-999.0,-999.0,57,-99.99,,,-99.99,,2013-05-12 13:52:00,
2013-05-12 10:21:00,64.0,44.0,29.68,North,352,-999.0,-999.0,50,-99.99,,,-99.99,,2013-05-12 14:21:00,
2013-05-12 10:32:00,64.0,44.0,29.68,North,352,-999.0,-999.0,50,-99.99,,,-99.99,,2013-05-12 14:32:00,
2013-05-12 10:42:00,64.0,44.0,29.68,North,352,-999.0,-999.0,50,-99.99,,,-99.99,,2013-05-12 14:42:00,
2013-05-12 10:52:00,64.0,44.0,29.68,North,352,-999.0,-999.0,50,-99.99,,,-99.99,,2013-05-12 14:52:00,
2013-05-12 11:21:00,67.0,41.0,29.67,NW,323,5.0,7.0,39,-99.99,,,-99.99,,2013-05-12 15:21:00,
2013-05-12 11:34:00,67.0,41.0,29.67,NW,323,5.0,7.0,39,-99.99,,,-99.99,,2013-05-12 15:34:00,
2013-05-12 11:42:00,67.0,41.0,29.67,NW,323,5.0,7.0,39,-99.99,,,-99.99,,2013-05-12 15:42:00,
2013-05-12 11:52:00,67.0,41.0,29.67,NW,323,5.0,7.0,39,-99.99,,,-99.99,,2013-05-12 15:52:00,
2013-05-12 12:23:00,67.0,39.0,29.67,WNW,293,-999.0,12.0,35,-99.99,,,-99.99,,2013-05-12 16:23:00,
2013-05-12 12:33:00,67.0,39.0,29.67,WNW,293,-999.0,12.0,35,-99.99,,,-99.99,,2013-05-12 16:33:00,
2013-05-12 12:42:00,67.0,39.0,29.67,WNW,293,-999.0,12.0,35,-99.99,,,-99.99,,2013-05-12 16:42:00,
2013-05-12 12:52:00,67.0,39.0,29.67,WNW,293,-999.0,12.0,35,-99.99,,,-99.99,,2013-05-12 16:52:00,
2013-05-12 13:32:00,66.0,32.0,29.68,North,-999,-999.0,12.0,28,-99.99,,,-99.99,,2013-05-12 17:32:00,
2013-05-12 13:42:00,66.0,32.0,29.68,North,-999,-999.0,12.0,28,-99.99,,,-99.99,,2013-05-12 17:42:00,
2013-05-12 13:52:00,66.0,32.0,29.68,North,-999,-999.0,12.0,28,-99.99,,,-99.99,,2013-05-12 17:52:00,
2013-05-12 14:22:00,66.0,27.0,29.69,North,-999,-999.0,14.0,23,-99.99,,,-99.99,,2013-05-12 18:22:00,
2013-05-12 14:32:00,66.0,27.0,29.69,North,-999,-999.0,14.0,23,-99.99,,,-99.99,,2013-05-12 18:32:00,
2013-05-12 14:42:00,66.0,27.0,29.69,North,-999,-999.0,14.0,23,-99.99,,,-99.99,,2013-05-12 18:42:00,
2013-05-12 14:52:00,66.0,27.0,29.69,North,-999,-999.0,14.0,23,-99.99,,,-99.99,,2013-05-12 18:52:00,
2013-05-12 15:22:00,66.0,25.0,29.69,North,-999,-999.0,2.0,21,-99.99,,,-99.99,,2013-05-12 19:22:00,
2013-05-12 15:32:00,66.0,25.0,29.69,North,-999,-999.0,2.0,21,-99.99,,,-99.99,,2013-05-12 19:32:00,
2013-05-12 15:42:00,66.0,25.0,29.69,North,-999,-999.0,2.0,21,-99.99,,,-99.99,,2013-05-12 19:42:00,
2013-05-12 15:52:00,66.0,25.0,29.69,North,-999,-999.0,2.0,21,-99.99,,,-99.99,,2013-05-12 19:52:00,
2013-05-12 16:22:00,65.0,24.0,29.70,NW,312,-999.0,5.0,21,-99.99,,,-99.99,,2013-05-12 20:22:00,
2013-05-12 16:32:00,65.0,24.0,29.70,NW,312,-999.0,5.0,21,-99.99,,,-99.99,,2013-05-12 20:32:00,
2013-05-12 16:42:00,65.0,24.0,29.70,NW,312,-999.0,5.0,21,-99.99,,,-99.99,,2013-05-12 20:42:00,
2013-05-12 16:52:00,65.0,24.0,29.70,NW,312,-999.0,5.0,21,-99.99,,,-99.99,,2013-05-12 20:52:00,
2013-05-12 16:53:00,62.0,20.0,29.73,North,351,-999.0,5.0,19,-99.99,,,-99.99,,2013-05-12 20:53:00,
2013-05-12 17:33:00,62.0,20.0,29.73,North,351,-999.0,5.0,19,-99.99,,,-99.99,,2013-05-12 21:33:00,
2013-05-12 17:42:00,62.0,20.0,29.73,North,351,-999.0,5.0,19,-99.99,,,-99.99,,2013-05-12 21:42:00,
2013-05-12 18:23:00,62.0,19.0,29.76,NNW,345,-999.0,18.0,20,-99.99,,,-99.99,,2013-05-12 22:23:00,
2013-05-12 18:33:00,62.0,19.0,29.76,NNW,345,-999.0,18.0,20,-99.99,,,-99.99,,2013-05-12 22:33:00,
2013-05-12 18:42:00,62.0,19.0,29.76,NNW,345,-999.0,18.0,20,-99.99,,,-99.99,,2013-05-12 22:42:00,
2013-05-12 18:52:00,62.0,19.0,29.76,NNW,345,-999.0,18.0,20,-99.99,,,-99.99,,2013-05-12 22:52:00,
2013-05-12 19:22:00,60.0,21.0,29.78,North,-999,-999.0,3.0,22,-99.99,,,-99.99,,2013-05-12 23:22:00,
2013-05-12 19:32:00,60.0,21.0,29.78,North,-999,-999.0,3.0,22,-99.99,,,-99.99,,2013-05-12 23:32:00,
2013-05-12 19:42:00,60.0,21.0,29.78,North,-999,-999.0,3.0,22,-99.99,,,-99.99,,2013-05-12 23:42:00,
2013-05-12 19:52:00,60.0,21.0,29.78,North,-999,-999.0,3.0,22,-99.99,,,-99.99,,2013-05-12 23:52:00,
2013-05-12 20:22:00,56.0,21.0,29.81,NW,309,-999.0,5.0,26,-99.99,,,-99.99,,2013-05-13 00:22:00,
2013-05-12 20:32:00,56.0,21.0,29.81,NW,309,-999.0,5.0,26,-99.99,,,-99.99,,2013-05-13 00:32:00,
2013-05-12 20:42:00,56.0,21.0,29.81,NW,309,-999.0,5.0,26,-99.99,,,-99.99,,2013-05-13 00:42:00,
2013-05-12 20:51:00,56.0,21.0,29.81,NW,309,-999.0,5.0,26,-99.99,,,-99.99,,2013-05-13 00:51:00,
2013-05-12 21:22:00,54.0,23.0,29.84,NW,325,-999.0,3.0,30,-99.99,,,-99.99,,2013-05-13 01:22:00,
2013-05-12 21:32:00,54.0,23.0,29.84,NW,325,-999.0,3.0,30,-99.99,,,-99.99,,2013-05-13 01:32:00,
2013-05-12 21:42:00,54.0,23.0,29.84,NW,325,-999.0,3.0,30,-99.99,,,-99.99,,2013-05-13 01:42:00,
2013-05-12 21:52:00,54.0,23.0,29.84,NW,325,-999.0,3.0,30,-99.99,,,-99.99,,2013-05-13 01:52:00,
2013-05-12 22:32:00,53.0,25.0,29.89,NNE,23,-999.0,-999.0,34,-99.99,,,-99.99,,2013-05-13 02:32:00,
2013-05-12 22:42:00,53.0,25.0,29.89,NNE,23,-999.0,-999.0,34,-99.99,,,-99.99,,2013-05-13 02:42:00,
2013-05-12 22:53:00,50.0,26.0,29.92,NNE,23,-999.0,3.0,40,-99.99,,,-99.99,,2013-05-13 02:53:00,
2013-05-12 23:22:00,50.0,26.0,29.92,NNE,23,-999.0,3.0,40,-99.99,,,-99.99,,2013-05-13 03:22:00,
2013-05-12 23:33:00,50.0,26.0,29.92,NNE,23,-999.0,3.0,40,-99.99,,,-99.99,,2013-05-13 03:33:00,
2013-05-12 23:42:00,50.0,26.0,29.92,NNE,23,-999.0,3.0,40,-99.99,,,-99.99,,2013-05-13 03:42:00,